KNGP

Airport

Corpus Christi, Texas, USA
METAR KNGP 100556Z AUTO 03013KT 10SM CLR 11/06 A3038 RMK AO2 SLP286 T01060061 10122 20106 401560078 51012 $
Observed Flight Rules
Dec-10 @ 05:56 UTC (an hour ago) Visual Flight Rules
Wind Visibility Clouds
30° at 13 knots 10 miles
  • Clear skies
Temperatures Readings
Current 11°C / 52°F
Dewpoint 6°C / 43°F
Humidity 72%
Altimeter 30.38" Hg
Pressure 1028.6 hPa
Elevation 6
METAR KNGP 100556Z AUTO 03013KT 10SM CLR 11/06 A3038 RMK AO2 SLP286 T01060061 10122 20106 401560078 51012 $
Observed Flight Rules
Dec-10 @ 05:56 UTC
(an hour ago)
VFR
Wind Visibility
30° at 13 knots 10 miles
Clouds
  • Clear skies
Temperature Dewpoint
11°C / 52°F 6°C / 43°F
Humidity Altimeter Pressure
72% 30.38" Hg 1028.6 hPa